Terminal Aerodrome Forecast
Issued by NWS Corpus Christi, TX

Home | Current Version | Previous Version | Text Only | Print | Product List | Glossary On
Versions: 1 2 3 4 5 6 7 8 9 10 11 12 13 14 15 16 17 18 19 20
180
FTUS44 KCRP 231720
TAFVCT
TAF
KVCT 231720Z 2318/2418 14009KT P6SM VCTS SCT040CB BKN050
     FM232100 13011KT P6SM SCT050 SCT250
     FM240700 09004KT 4SM BR SCT015
      TEMPO 2409/2413 2SM BR BKN012
     FM241400 10006KT P6SM VCSH SCT025 SCT250=

USA.gov is the U.S. government's official web portal to all federal, state and local government web resources and services.